sensor_id;sensor_type;location;lat;lon;timestamp;P1;durP1;ratioP1;P2;durP2;ratioP2
7989;SDS011;4040;42.848;23.034;2022-08-21T00:05:09;10.88;;;9.13;;
7989;SDS011;4040;42.848;23.034;2022-08-21T00:10:59;16.20;;;12.10;;
7989;SDS011;4040;42.848;23.034;2022-08-21T00:16:48;19.45;;;13.88;;
7989;SDS011;4040;42.848;23.034;2022-08-21T00:22:37;20.90;;;13.82;;
7989;SDS011;4040;42.848;23.034;2022-08-21T00:28:28;21.70;;;13.30;;
7989;SDS011;4040;42.848;23.034;2022-08-21T00:34:16;17.45;;;13.07;;
7989;SDS011;4040;42.848;23.034;2022-08-21T00:40:08;15.75;;;11.75;;
7989;SDS011;4040;42.848;23.034;2022-08-21T00:46:03;16.52;;;10.68;;
7989;SDS011;4040;42.848;23.034;2022-08-21T00:51:53;17.50;;;10.48;;
7989;SDS011;4040;42.848;23.034;2022-08-21T00:57:45;13.52;;;11.20;;
7989;SDS011;4040;42.848;23.034;2022-08-21T01:03:39;16.42;;;11.70;;
7989;SDS011;4040;42.848;23.034;2022-08-21T01:09:28;20.02;;;12.00;;
7989;SDS011;4040;42.848;23.034;2022-08-21T01:15:17;16.92;;;12.18;;
7989;SDS011;4040;42.848;23.034;2022-08-21T01:21:09;17.42;;;12.80;;
7989;SDS011;4040;42.848;23.034;2022-08-21T01:27:20;15.55;;;11.63;;
7989;SDS011;4040;42.848;23.034;2022-08-21T01:33:09;17.80;;;12.45;;
7989;SDS011;4040;42.848;23.034;2022-08-21T01:39:00;19.58;;;12.25;;
7989;SDS011;4040;42.848;23.034;2022-08-21T01:44:50;17.40;;;11.85;;
7989;SDS011;4040;42.848;23.034;2022-08-21T01:50:39;17.27;;;11.63;;
7989;SDS011;4040;42.848;23.034;2022-08-21T01:56:31;14.63;;;11.63;;
7989;SDS011;4040;42.848;23.034;2022-08-21T02:02:24;18.30;;;11.18;;
7989;SDS011;4040;42.848;23.034;2022-08-21T02:12:36;14.88;;;10.10;;
7989;SDS011;4040;42.848;23.034;2022-08-21T02:18:24;15.98;;;9.85;;
7989;SDS011;4040;42.848;23.034;2022-08-21T02:24:13;14.02;;;10.05;;
7989;SDS011;4040;42.848;23.034;2022-08-21T02:30:04;13.05;;;8.88;;
7989;SDS011;4040;42.848;23.034;2022-08-21T02:35:53;11.32;;;9.50;;
7989;SDS011;4040;42.848;23.034;2022-08-21T02:41:43;13.10;;;8.57;;
7989;SDS011;4040;42.848;23.034;2022-08-21T02:47:33;10.00;;;7.22;;
7989;SDS011;4040;42.848;23.034;2022-08-21T02:53:22;10.52;;;8.30;;
7989;SDS011;4040;42.848;23.034;2022-08-21T02:59:11;9.90;;;7.82;;
7989;SDS011;4040;42.848;23.034;2022-08-21T03:05:01;15.57;;;9.10;;
7989;SDS011;4040;42.848;23.034;2022-08-21T03:15:13;14.25;;;10.30;;
7989;SDS011;4040;42.848;23.034;2022-08-21T03:21:06;15.60;;;9.55;;
7989;SDS011;4040;42.848;23.034;2022-08-21T03:26:55;14.77;;;9.13;;
7989;SDS011;4040;42.848;23.034;2022-08-21T03:32:43;11.38;;;8.35;;
7989;SDS011;4040;42.848;23.034;2022-08-21T03:38:34;20.17;;;9.98;;
7989;SDS011;4040;42.848;23.034;2022-08-21T03:44:24;16.17;;;10.15;;
7989;SDS011;4040;42.848;23.034;2022-08-21T03:50:15;14.07;;;9.85;;
7989;SDS011;4040;42.848;23.034;2022-08-21T03:56:05;13.57;;;9.68;;
7989;SDS011;4040;42.848;23.034;2022-08-21T04:01:55;14.52;;;10.38;;
7989;SDS011;4040;42.848;23.034;2022-08-21T04:07:45;13.52;;;9.98;;
7989;SDS011;4040;42.848;23.034;2022-08-21T04:17:57;12.32;;;9.93;;
7989;SDS011;4040;42.848;23.034;2022-08-21T04:23:46;15.90;;;10.35;;
7989;SDS011;4040;42.848;23.034;2022-08-21T04:29:34;18.38;;;11.38;;
7989;SDS011;4040;42.848;23.034;2022-08-21T04:35:26;19.60;;;12.02;;
7989;SDS011;4040;42.848;23.034;2022-08-21T04:41:15;38.92;;;15.27;;
7989;SDS011;4040;42.848;23.034;2022-08-21T04:47:04;14.93;;;11.20;;
7989;SDS011;4040;42.848;23.034;2022-08-21T04:52:55;22.95;;;13.45;;
7989;SDS011;4040;42.848;23.034;2022-08-21T04:58:44;24.17;;;15.90;;
7989;SDS011;4040;42.848;23.034;2022-08-21T05:04:33;25.02;;;14.35;;
7989;SDS011;4040;42.848;23.034;2022-08-21T05:10:25;21.13;;;14.18;;
7989;SDS011;4040;42.848;23.034;2022-08-21T05:20:36;27.77;;;16.30;;
7989;SDS011;4040;42.848;23.034;2022-08-21T05:26:27;25.10;;;17.10;;
7989;SDS011;4040;42.848;23.034;2022-08-21T05:32:16;29.95;;;17.20;;
7989;SDS011;4040;42.848;23.034;2022-08-21T05:38:05;22.73;;;16.02;;
7989;SDS011;4040;42.848;23.034;2022-08-21T05:43:55;22.02;;;14.07;;
7989;SDS011;4040;42.848;23.034;2022-08-21T05:49:44;15.32;;;11.80;;
7989;SDS011;4040;42.848;23.034;2022-08-21T05:55:33;16.90;;;12.20;;
7989;SDS011;4040;42.848;23.034;2022-08-21T06:01:24;19.73;;;13.27;;
7989;SDS011;4040;42.848;23.034;2022-08-21T06:07:13;17.08;;;11.63;;
7989;SDS011;4040;42.848;23.034;2022-08-21T06:13:02;14.32;;;11.73;;
7989;SDS011;4040;42.848;23.034;2022-08-21T06:23:14;16.67;;;11.77;;
7989;SDS011;4040;42.848;23.034;2022-08-21T06:29:03;17.90;;;11.55;;
7989;SDS011;4040;42.848;23.034;2022-08-21T06:34:52;16.75;;;11.80;;
7989;SDS011;4040;42.848;23.034;2022-08-21T06:40:42;21.02;;;13.00;;
7989;SDS011;4040;42.848;23.034;2022-08-21T06:46:31;19.15;;;13.15;;
7989;SDS011;4040;42.848;23.034;2022-08-21T06:52:20;14.27;;;11.43;;
7989;SDS011;4040;42.848;23.034;2022-08-21T06:58:10;15.15;;;12.25;;
7989;SDS011;4040;42.848;23.034;2022-08-21T07:03:59;16.38;;;12.00;;
7989;SDS011;4040;42.848;23.034;2022-08-21T07:09:48;14.18;;;11.23;;
7989;SDS011;4040;42.848;23.034;2022-08-21T07:15:38;13.88;;;10.77;;
7989;SDS011;4040;42.848;23.034;2022-08-21T07:25:49;15.80;;;11.05;;
7989;SDS011;4040;42.848;23.034;2022-08-21T07:31:39;15.82;;;10.75;;
7989;SDS011;4040;42.848;23.034;2022-08-21T07:37:27;14.45;;;10.90;;
7989;SDS011;4040;42.848;23.034;2022-08-21T07:43:16;17.23;;;8.63;;
7989;SDS011;4040;42.848;23.034;2022-08-21T07:49:06;9.93;;;7.53;;
7989;SDS011;4040;42.848;23.034;2022-08-21T07:54:55;10.88;;;7.50;;
7989;SDS011;4040;42.848;23.034;2022-08-21T08:00:44;8.43;;;7.20;;
7989;SDS011;4040;42.848;23.034;2022-08-21T08:06:34;9.60;;;7.65;;
7989;SDS011;4040;42.848;23.034;2022-08-21T08:12:22;12.13;;;7.75;;
7989;SDS011;4040;42.848;23.034;2022-08-21T08:18:15;10.93;;;7.78;;
7989;SDS011;4040;42.848;23.034;2022-08-21T08:28:27;13.75;;;7.90;;
7989;SDS011;4040;42.848;23.034;2022-08-21T08:34:18;9.95;;;7.47;;
7989;SDS011;4040;42.848;23.034;2022-08-21T08:40:10;9.60;;;7.63;;
7989;SDS011;4040;42.848;23.034;2022-08-21T08:46:04;10.50;;;7.72;;
7989;SDS011;4040;42.848;23.034;2022-08-21T08:52:00;9.68;;;6.35;;
7989;SDS011;4040;42.848;23.034;2022-08-21T08:57:51;11.60;;;6.65;;
7989;SDS011;4040;42.848;23.034;2022-08-21T09:03:44;7.53;;;6.80;;
7989;SDS011;4040;42.848;23.034;2022-08-21T09:09:40;10.70;;;6.40;;
7989;SDS011;4040;42.848;23.034;2022-08-21T09:15:54;7.13;;;6.13;;
7989;SDS011;4040;42.848;23.034;2022-08-21T09:21:57;11.05;;;6.03;;
7989;SDS011;4040;42.848;23.034;2022-08-21T09:27:51;9.32;;;6.43;;
7989;SDS011;4040;42.848;23.034;2022-08-21T09:33:40;7.03;;;6.32;;
7989;SDS011;4040;42.848;23.034;2022-08-21T09:39:32;8.93;;;5.90;;
7989;SDS011;4040;42.848;23.034;2022-08-21T09:45:26;9.38;;;5.80;;
7989;SDS011;4040;42.848;23.034;2022-08-21T09:51:16;7.78;;;5.53;;
7989;SDS011;4040;42.848;23.034;2022-08-21T09:57:13;8.00;;;5.85;;
7989;SDS011;4040;42.848;23.034;2022-08-21T10:06:45;6.32;;;4.60;;
7989;SDS011;4040;42.848;23.034;2022-08-21T10:12:39;8.75;;;5.10;;
7989;SDS011;4040;42.848;23.034;2022-08-21T10:18:35;9.32;;;5.95;;
7989;SDS011;4040;42.848;23.034;2022-08-21T10:28:13;8.95;;;5.57;;
7989;SDS011;4040;42.848;23.034;2022-08-21T10:34:15;8.60;;;5.95;;
7989;SDS011;4040;42.848;23.034;2022-08-21T10:40:15;9.65;;;6.18;;
7989;SDS011;4040;42.848;23.034;2022-08-21T10:46:12;8.73;;;6.25;;
7989;SDS011;4040;42.848;23.034;2022-08-21T10:52:14;7.93;;;6.07;;
7989;SDS011;4040;42.848;23.034;2022-08-21T10:58:23;7.18;;;6.47;;
7989;SDS011;4040;42.848;23.034;2022-08-21T11:04:18;8.52;;;6.38;;
7989;SDS011;4040;42.848;23.034;2022-08-21T11:10:15;11.30;;;8.52;;
7989;SDS011;4040;42.848;23.034;2022-08-21T11:16:10;7.78;;;6.45;;
7989;SDS011;4040;42.848;23.034;2022-08-21T11:22:08;13.50;;;10.80;;
7989;SDS011;4040;42.848;23.034;2022-08-21T11:28:05;11.18;;;6.30;;
7989;SDS011;4040;42.848;23.034;2022-08-21T11:34:01;6.53;;;5.72;;
7989;SDS011;4040;42.848;23.034;2022-08-21T11:40:03;9.25;;;6.18;;
7989;SDS011;4040;42.848;23.034;2022-08-21T11:46:00;7.25;;;5.95;;
7989;SDS011;4040;42.848;23.034;2022-08-21T11:52:02;6.32;;;5.10;;
7989;SDS011;4040;42.848;23.034;2022-08-21T11:58:01;6.97;;;5.32;;
7989;SDS011;4040;42.848;23.034;2022-08-21T12:03:54;8.38;;;4.93;;
7989;SDS011;4040;42.848;23.034;2022-08-21T12:09:57;5.82;;;5.10;;
7989;SDS011;4040;42.848;23.034;2022-08-21T12:15:49;7.53;;;5.00;;
7989;SDS011;4040;42.848;23.034;2022-08-21T12:21:47;8.13;;;5.00;;
7989;SDS011;4040;42.848;23.034;2022-08-21T12:32:01;5.95;;;4.75;;
7989;SDS011;4040;42.848;23.034;2022-08-21T12:37:56;8.07;;;4.40;;
7989;SDS011;4040;42.848;23.034;2022-08-21T12:43:48;8.73;;;5.38;;
7989;SDS011;4040;42.848;23.034;2022-08-21T12:49:48;11.82;;;5.60;;
7989;SDS011;4040;42.848;23.034;2022-08-21T12:55:42;8.15;;;4.95;;
7989;SDS011;4040;42.848;23.034;2022-08-21T13:01:31;9.45;;;6.03;;
7989;SDS011;4040;42.848;23.034;2022-08-21T13:07:26;8.35;;;5.55;;
7989;SDS011;4040;42.848;23.034;2022-08-21T13:13:17;8.25;;;5.10;;
7989;SDS011;4040;42.848;23.034;2022-08-21T13:19:11;9.35;;;5.07;;
7989;SDS011;4040;42.848;23.034;2022-08-21T13:25:08;8.05;;;5.50;;
7989;SDS011;4040;42.848;23.034;2022-08-21T13:30:58;6.57;;;5.88;;
7989;SDS011;4040;42.848;23.034;2022-08-21T13:36:48;9.40;;;6.30;;
7989;SDS011;4040;42.848;23.034;2022-08-21T13:42:43;7.57;;;5.88;;
7989;SDS011;4040;42.848;23.034;2022-08-21T13:48:35;8.13;;;5.30;;
7989;SDS011;4040;42.848;23.034;2022-08-21T13:54:25;6.88;;;5.63;;
7989;SDS011;4040;42.848;23.034;2022-08-21T14:00:26;12.05;;;5.45;;
7989;SDS011;4040;42.848;23.034;2022-08-21T14:06:17;6.20;;;4.85;;
7989;SDS011;4040;42.848;23.034;2022-08-21T14:12:11;8.00;;;4.95;;
7989;SDS011;4040;42.848;23.034;2022-08-21T14:18:08;10.90;;;5.70;;
7989;SDS011;4040;42.848;23.034;2022-08-21T14:24:03;10.68;;;6.40;;
7989;SDS011;4040;42.848;23.034;2022-08-21T14:34:18;9.30;;;6.03;;
7989;SDS011;4040;42.848;23.034;2022-08-21T14:40:08;11.80;;;6.80;;
7989;SDS011;4040;42.848;23.034;2022-08-21T14:45:58;10.57;;;7.65;;
7989;SDS011;4040;42.848;23.034;2022-08-21T14:51:50;11.45;;;9.00;;
7989;SDS011;4040;42.848;23.034;2022-08-21T14:57:44;11.02;;;9.82;;
7989;SDS011;4040;42.848;23.034;2022-08-21T15:03:36;11.98;;;9.93;;
7989;SDS011;4040;42.848;23.034;2022-08-21T15:09:27;10.63;;;9.43;;
7989;SDS011;4040;42.848;23.034;2022-08-21T15:15:17;10.80;;;9.43;;
7989;SDS011;4040;42.848;23.034;2022-08-21T15:21:06;13.00;;;11.02;;
7989;SDS011;4040;42.848;23.034;2022-08-21T15:26:56;11.00;;;9.90;;
7989;SDS011;4040;42.848;23.034;2022-08-21T15:37:09;11.43;;;9.50;;
7989;SDS011;4040;42.848;23.034;2022-08-21T15:43:00;11.32;;;9.85;;
7989;SDS011;4040;42.848;23.034;2022-08-21T15:48:51;13.35;;;9.68;;
7989;SDS011;4040;42.848;23.034;2022-08-21T15:54:40;10.23;;;9.07;;
7989;SDS011;4040;42.848;23.034;2022-08-21T16:00:31;10.82;;;9.07;;
7989;SDS011;4040;42.848;23.034;2022-08-21T16:06:22;10.35;;;7.57;;
7989;SDS011;4040;42.848;23.034;2022-08-21T16:12:13;12.45;;;10.05;;
7989;SDS011;4040;42.848;23.034;2022-08-21T16:18:08;13.82;;;9.75;;
7989;SDS011;4040;42.848;23.034;2022-08-21T16:23:57;13.98;;;11.50;;
7989;SDS011;4040;42.848;23.034;2022-08-21T16:29:46;17.00;;;13.65;;
7989;SDS011;4040;42.848;23.034;2022-08-21T16:39:59;19.90;;;12.30;;
7989;SDS011;4040;42.848;23.034;2022-08-21T16:45:48;20.27;;;14.45;;
7989;SDS011;4040;42.848;23.034;2022-08-21T16:51:37;13.57;;;12.13;;
7989;SDS011;4040;42.848;23.034;2022-08-21T16:57:27;15.15;;;11.13;;
7989;SDS011;4040;42.848;23.034;2022-08-21T17:03:16;17.77;;;11.43;;
7989;SDS011;4040;42.848;23.034;2022-08-21T17:09:08;15.25;;;10.93;;
7989;SDS011;4040;42.848;23.034;2022-08-21T17:15:00;15.68;;;10.93;;
7989;SDS011;4040;42.848;23.034;2022-08-21T17:20:54;15.30;;;11.15;;
7989;SDS011;4040;42.848;23.034;2022-08-21T17:26:43;16.25;;;12.15;;
7989;SDS011;4040;42.848;23.034;2022-08-21T17:32:33;16.45;;;11.35;;
7989;SDS011;4040;42.848;23.034;2022-08-21T17:42:45;11.20;;;8.73;;
7989;SDS011;4040;42.848;23.034;2022-08-21T17:48:37;10.23;;;8.43;;
7989;SDS011;4040;42.848;23.034;2022-08-21T17:54:25;11.15;;;7.20;;
7989;SDS011;4040;42.848;23.034;2022-08-21T18:00:15;9.05;;;6.95;;
7989;SDS011;4040;42.848;23.034;2022-08-21T18:06:07;10.80;;;7.40;;
7989;SDS011;4040;42.848;23.034;2022-08-21T18:11:56;9.07;;;7.13;;
7989;SDS011;4040;42.848;23.034;2022-08-21T18:17:48;7.82;;;7.07;;
7989;SDS011;4040;42.848;23.034;2022-08-21T18:23:39;10.80;;;6.78;;
7989;SDS011;4040;42.848;23.034;2022-08-21T18:29:28;9.45;;;6.88;;
7989;SDS011;4040;42.848;23.034;2022-08-21T18:35:17;9.90;;;7.03;;
7989;SDS011;4040;42.848;23.034;2022-08-21T18:45:29;10.60;;;7.13;;
7989;SDS011;4040;42.848;23.034;2022-08-21T18:51:18;9.98;;;6.85;;
7989;SDS011;4040;42.848;23.034;2022-08-21T18:57:07;13.38;;;7.47;;
7989;SDS011;4040;42.848;23.034;2022-08-21T19:02:57;13.02;;;7.25;;
7989;SDS011;4040;42.848;23.034;2022-08-21T19:08:46;9.13;;;6.47;;
7989;SDS011;4040;42.848;23.034;2022-08-21T19:14:35;10.35;;;6.53;;
7989;SDS011;4040;42.848;23.034;2022-08-21T19:20:26;7.15;;;6.38;;
7989;SDS011;4040;42.848;23.034;2022-08-21T19:26:17;8.02;;;5.68;;
7989;SDS011;4040;42.848;23.034;2022-08-21T19:32:15;8.27;;;6.22;;
7989;SDS011;4040;42.848;23.034;2022-08-21T19:38:05;7.25;;;5.40;;
7989;SDS011;4040;42.848;23.034;2022-08-21T19:48:16;11.70;;;6.18;;
7989;SDS011;4040;42.848;23.034;2022-08-21T19:54:06;6.15;;;5.25;;
7989;SDS011;4040;42.848;23.034;2022-08-21T20:00:02;6.70;;;5.63;;
7989;SDS011;4040;42.848;23.034;2022-08-21T20:05:53;6.68;;;5.38;;
7989;SDS011;4040;42.848;23.034;2022-08-21T20:11:44;6.07;;;4.90;;
7989;SDS011;4040;42.848;23.034;2022-08-21T20:17:34;7.05;;;6.25;;
7989;SDS011;4040;42.848;23.034;2022-08-21T20:23:24;6.90;;;5.38;;
7989;SDS011;4040;42.848;23.034;2022-08-21T20:29:14;8.65;;;5.60;;
7989;SDS011;4040;42.848;23.034;2022-08-21T20:35:04;6.07;;;5.47;;
7989;SDS011;4040;42.848;23.034;2022-08-21T20:40:53;8.05;;;5.95;;
7989;SDS011;4040;42.848;23.034;2022-08-21T20:51:07;7.40;;;5.93;;
7989;SDS011;4040;42.848;23.034;2022-08-21T20:56:59;8.25;;;6.43;;
7989;SDS011;4040;42.848;23.034;2022-08-21T21:02:55;9.43;;;6.32;;
7989;SDS011;4040;42.848;23.034;2022-08-21T21:08:51;7.47;;;6.40;;
7989;SDS011;4040;42.848;23.034;2022-08-21T21:14:46;9.32;;;7.22;;
7989;SDS011;4040;42.848;23.034;2022-08-21T21:20:40;9.07;;;6.45;;
7989;SDS011;4040;42.848;23.034;2022-08-21T21:26:38;10.05;;;6.72;;
7989;SDS011;4040;42.848;23.034;2022-08-21T21:32:31;7.85;;;6.75;;
7989;SDS011;4040;42.848;23.034;2022-08-21T21:38:21;12.45;;;7.20;;
7989;SDS011;4040;42.848;23.034;2022-08-21T21:50:45;15.23;;;9.18;;
7989;SDS011;4040;42.848;23.034;2022-08-21T21:56:41;11.57;;;9.55;;
7989;SDS011;4040;42.848;23.034;2022-08-21T22:08:34;14.50;;;10.35;;
7989;SDS011;4040;42.848;23.034;2022-08-21T22:14:32;13.20;;;10.68;;
7989;SDS011;4040;42.848;23.034;2022-08-21T22:20:26;14.02;;;10.48;;
7989;SDS011;4040;42.848;23.034;2022-08-21T22:26:21;13.75;;;10.80;;
7989;SDS011;4040;42.848;23.034;2022-08-21T22:32:20;14.93;;;11.23;;
7989;SDS011;4040;42.848;23.034;2022-08-21T22:38:16;16.80;;;10.75;;
7989;SDS011;4040;42.848;23.034;2022-08-21T22:44:18;14.15;;;10.63;;
7989;SDS011;4040;42.848;23.034;2022-08-21T22:50:26;14.90;;;11.45;;
7989;SDS011;4040;42.848;23.034;2022-08-21T22:56:25;15.65;;;11.57;;
7989;SDS011;4040;42.848;23.034;2022-08-21T23:02:21;20.05;;;13.75;;
7989;SDS011;4040;42.848;23.034;2022-08-21T23:08:20;18.38;;;13.15;;
7989;SDS011;4040;42.848;23.034;2022-08-21T23:14:12;18.55;;;13.90;;
7989;SDS011;4040;42.848;23.034;2022-08-21T23:20:05;19.45;;;14.75;;
7989;SDS011;4040;42.848;23.034;2022-08-21T23:26:07;21.08;;;16.00;;
7989;SDS011;4040;42.848;23.034;2022-08-21T23:32:07;25.92;;;16.85;;
7989;SDS011;4040;42.848;23.034;2022-08-21T23:38:12;25.27;;;17.80;;
7989;SDS011;4040;42.848;23.034;2022-08-21T23:44:13;23.58;;;15.90;;
7989;SDS011;4040;42.848;23.034;2022-08-21T23:50:10;23.17;;;17.15;;
7989;SDS011;4040;42.848;23.034;2022-08-21T23:56:06;24.15;;;17.52;;
